Airfield :
LOGIN :

Register | Disclaimer

   EN    FR    IT 

 










Legend :    VFR   Marginal VFR   IFR   Intensive IFR   Very Intensive IFR
Visi :
Ceiling :
>= 8 km
>= 3000ft
5 to 8 km
1000 to 3000 ft
1500m to 5 km
500 to 1000 ft
800 to 1500m
200 to 500 ft
< 800m
< 200 ft
Symbols :   Thunderstorms  Fog  Heavy snow  Heavy precipitations  Wind > 20 kt
SIGMETs :     Misc.  Thunderstorms  Icing  Turbulence  Mountain Waves  Volcanic Ashes






- Airport Elevation : 404 ft
- IATA code : WRO


EPWR - Wroclaw

CURRENT METAR :
  • 052030Z 36005KT 9999 FEW021 M03/M06 Q1039

EXPIRED METARs :
  • 052000Z 32005KT CAVOK M05/M07 Q1039
  • 051930Z 35003KT 330V030 CAVOK M04/M07 Q1038
  • 051900Z VRB02KT CAVOK M05/M07 Q1038
  • 051830Z VRB02KT CAVOK M04/M07 Q1038
  • 051800Z 31003KT 270V020 CAVOK M04/M07 Q1038

TAF TAF EPWR
Valid from the 05 at 21:00 until the 06 at 21:00 UTC


052030Z 0521/0621 VRB02KT CAVOK
PROB30 0605/0608 3000 BR



MET'MAP, your aeronautical weather chart ! - Copyright ORBIFLY December 2007 - Disclaimer

ORBIFLY MET'MAP TEAM :

Programming & Development : Alexandra Zaïnal
Original concept : Baudouin d'Aumeries
Technical & hardware support : Manuel Goepfert
Assistance : Marc-Olivier Méhu




SOURCES & CREDITS :

   NOAA